CheckWX is a tool to help pilots better visualize weather data.  It is not intended as a substitute for an official pre-flight weather briefing.

21:59:53 UTC

KGSO METAR
Piedmont Triad International Airport Airport
Greensboro, NC, USA
Current

1 hour ago

KGSO 102054Z 26009KT 10SM SCT047 SCT080 BKN250 32/21 A2983 RMK AO2 SLP089 T03220211 56019
Observed
Jul-10 @ 20:54 UTC
Wind
  • 260° at 9 KTS
Visibility
10 SM
Flight Rules
VFR
Cloud Levels
  • Scattered at 4,700' AGL
  • Scattered at 8,000' AGL
  • Broken at 25,000' AGL
Temperature
32°C / 90°F
Dewpoint
21°C / 70°F
Humidity
52%
Altimeter
29.83" Hg
Pressure
1010.12 hPa
Previous

2 hours ago

KGSO 101954Z VRB05KT 10SM SCT045 SCT080 BKN250 32/21 A2985 RMK AO2 SLP093 T03220206
Observed
Jul-10 @ 19:54 UTC
Wind
  • Variable at 5 KTS
Visibility
10 SM
Flight Rules
VFR
Cloud Levels
  • Scattered at 4,500' AGL
  • Scattered at 8,000' AGL
  • Broken at 25,000' AGL
Temperature
32°C / 90°F
Dewpoint
21°C / 70°F
Humidity
52%
Altimeter
29.85" Hg
Pressure
1010.82 hPa
Previous

3 hours ago

KGSO 101854Z 19007KT 160V220 10SM BKN042 BKN080 BKN200 33/22 A2986 RMK AO2 SLP098 CB DSNT NW-N T03280217
Observed
Jul-10 @ 18:54 UTC
Wind
  • 190° at 7 KTS
Visibility
10 SM
Flight Rules
VFR
Cloud Levels
  • Broken at 4,200' AGL
  • Broken at 8,000' AGL
  • Broken at 20,000' AGL
Temperature
33°C / 91°F
Dewpoint
22°C / 72°F
Humidity
52%
Altimeter
29.86" Hg
Pressure
1011.22 hPa